Terminal Aerodrome Forecast
Issued by NWS

Home | Current Version | Previous Version | Text Only | Print | Product List | Glossary On
Versions: 1 2 3 4 5 6 7 8 9 10 11
843
FTUS44 KBMX 081726
TAFTCL
TAF
KTCL 081726Z 0818/0918 29014G24KT P6SM BKN050
     FM090100 29009KT P6SM -SHSN BKN035 OVC050
     FM091500 29012G20KT P6SM BKN035 OVC050=

USA.gov is the U.S. government's official web portal to all federal, state and local government web resources and services.